createdAt,value
2022-09-10T00:00:03.042Z,15.84
2022-09-10T00:01:04.866Z,15.80
2022-09-10T00:02:06.707Z,15.79
2022-09-10T00:03:08.558Z,15.80
2022-09-10T00:04:11.833Z,15.82
2022-09-10T00:05:13.643Z,15.84
2022-09-10T00:06:16.250Z,15.84
2022-09-10T00:07:18.911Z,15.83
2022-09-10T00:08:22.004Z,15.84
2022-09-10T00:09:24.000Z,15.80
2022-09-10T00:10:26.637Z,15.77
2022-09-10T00:11:32.448Z,15.74
2022-09-10T00:12:35.538Z,15.71
2022-09-10T00:13:39.433Z,15.73
2022-09-10T00:14:41.269Z,15.75
2022-09-10T00:15:48.729Z,15.76
2022-09-10T00:16:50.695Z,15.75
2022-09-10T00:17:52.409Z,15.77
2022-09-10T00:18:54.339Z,15.75
2022-09-10T00:19:56.148Z,15.75
2022-09-10T00:20:59.362Z,15.75
2022-09-10T00:22:01.435Z,15.76
2022-09-10T00:23:05.038Z,15.79
2022-09-10T00:24:06.920Z,15.82
2022-09-10T00:25:08.919Z,15.83
2022-09-10T00:26:13.125Z,15.79
2022-09-10T00:27:16.091Z,15.80
2022-09-10T00:28:18.669Z,15.79
2022-09-10T00:29:20.617Z,15.79
2022-09-10T00:30:22.590Z,15.78
2022-09-10T00:31:24.750Z,15.79
2022-09-10T00:32:26.572Z,15.79
2022-09-10T00:33:30.455Z,15.79
2022-09-10T00:34:33.190Z,15.78
2022-09-10T00:35:35.057Z,15.76
2022-09-10T00:36:38.884Z,15.74
2022-09-10T00:37:41.130Z,15.76
2022-09-10T00:38:43.039Z,15.77
2022-09-10T00:39:44.907Z,15.79
2022-09-10T00:40:47.126Z,15.80
2022-09-10T00:41:49.148Z,15.80
2022-09-10T00:42:50.866Z,15.81
2022-09-10T00:43:56.829Z,15.79
2022-09-10T00:45:00.284Z,15.79
2022-09-10T00:46:02.209Z,15.80
2022-09-10T00:47:05.152Z,15.82
2022-09-10T00:48:12.421Z,15.86
2022-09-10T00:49:20.656Z,15.87
2022-09-10T00:50:25.889Z,15.89
2022-09-10T00:51:31.603Z,15.88
2022-09-10T00:52:38.921Z,15.88
2022-09-10T00:53:43.426Z,15.89
2022-09-10T00:54:45.923Z,15.87
2022-09-10T00:55:50.660Z,15.84
2022-09-10T00:56:55.300Z,15.82
2022-09-10T00:58:00.697Z,15.80
2022-09-10T00:59:04.046Z,15.82
2022-09-10T01:00:08.309Z,15.80
2022-09-10T01:01:11.344Z,15.80
2022-09-10T01:02:15.151Z,15.76
2022-09-10T01:03:17.374Z,15.72
2022-09-10T01:04:19.167Z,15.74
2022-09-10T01:05:21.586Z,15.75
2022-09-10T01:06:24.335Z,15.77
2022-09-10T01:07:29.352Z,15.78
2022-09-10T01:08:31.610Z,15.76
2022-09-10T01:09:33.523Z,15.75
2022-09-10T01:10:41.006Z,15.75
2022-09-10T01:11:49.931Z,15.73
2022-09-10T01:12:54.670Z,15.69
2022-09-10T01:14:14.787Z,15.72
2022-09-10T01:15:28.877Z,15.71
2022-09-10T01:16:59.926Z,15.70
2022-09-10T01:18:24.077Z,15.68
2022-09-10T01:19:25.864Z,15.70
2022-09-10T01:20:29.028Z,15.67
2022-09-10T01:21:47.141Z,15.68
2022-09-10T01:22:57.935Z,15.69
2022-09-10T01:24:12.845Z,15.70
2022-09-10T01:25:34.254Z,15.72
2022-09-10T01:26:55.266Z,15.74
2022-09-10T01:27:59.945Z,15.69
2022-09-10T01:29:24.806Z,15.68
2022-09-10T01:30:36.382Z,15.67
2022-09-10T01:31:50.267Z,15.66
2022-09-10T01:32:52.055Z,15.65
2022-09-10T01:34:02.517Z,15.62
2022-09-10T01:35:23.833Z,15.57
2022-09-10T01:36:29.855Z,15.51
2022-09-10T01:37:32.406Z,15.51
2022-09-10T01:38:35.939Z,15.52
2022-09-10T01:39:38.614Z,15.54
2022-09-10T01:40:40.606Z,15.55
2022-09-10T01:41:42.899Z,15.52
2022-09-10T01:42:45.751Z,15.50
2022-09-10T01:43:47.565Z,15.50
2022-09-10T01:44:50.484Z,15.52
2022-09-10T01:45:52.327Z,15.53
2022-09-10T01:47:11.683Z,15.53
2022-09-10T01:48:29.459Z,15.52
2022-09-10T01:49:39.523Z,15.50
2022-09-10T01:51:04.760Z,15.50
2022-09-10T01:52:28.766Z,15.51
2022-09-10T01:53:39.634Z,15.49
2022-09-10T01:55:00.189Z,15.45
2022-09-10T01:56:08.148Z,15.35
2022-09-10T01:57:15.939Z,15.35
2022-09-10T01:58:26.921Z,15.37
2022-09-10T01:59:29.364Z,15.39
2022-09-10T02:00:33.657Z,15.40
2022-09-10T02:01:46.250Z,15.42
2022-09-10T02:02:58.017Z,15.39
2022-09-10T02:04:02.292Z,15.40
2022-09-10T02:05:06.452Z,15.42
2022-09-10T02:06:09.818Z,15.42
2022-09-10T02:07:13.164Z,15.42
2022-09-10T02:08:21.268Z,15.43
2022-09-10T02:09:23.352Z,15.42
2022-09-10T02:10:25.383Z,15.42
2022-09-10T02:11:27.211Z,15.43
2022-09-10T02:12:29.877Z,15.44
2022-09-10T02:13:31.731Z,15.49
2022-09-10T02:14:33.791Z,15.49
2022-09-10T02:15:38.279Z,15.51
2022-09-10T02:16:43.468Z,15.53
2022-09-10T02:17:46.881Z,15.53
2022-09-10T02:18:49.950Z,15.53
2022-09-10T02:19:52.883Z,15.53
2022-09-10T02:20:58.377Z,15.49
2022-09-10T02:22:01.303Z,15.48
2022-09-10T02:23:03.760Z,15.42
2022-09-10T02:24:07.258Z,15.39
2022-09-10T02:25:10.125Z,15.37
2022-09-10T02:26:14.514Z,15.34
2022-09-10T02:27:16.596Z,15.32
2022-09-10T02:28:18.881Z,15.34
2022-09-10T02:29:20.777Z,15.34
2022-09-10T02:30:23.967Z,15.29
2022-09-10T02:31:26.331Z,15.27
2022-09-10T02:32:28.991Z,15.29
2022-09-10T02:33:31.365Z,15.31
2022-09-10T02:34:33.353Z,15.33
2022-09-10T02:35:35.134Z,15.29
2022-09-10T02:36:37.512Z,15.30
2022-09-10T02:37:39.291Z,15.32
2022-09-10T02:38:41.147Z,15.34
2022-09-10T02:39:43.493Z,15.35
2022-09-10T02:40:48.761Z,15.36
2022-09-10T02:41:51.230Z,15.39
2022-09-10T02:42:53.051Z,15.40
2022-09-10T02:43:55.915Z,15.41
2022-09-10T02:44:57.753Z,15.40
2022-09-10T02:45:59.910Z,15.36
2022-09-10T02:47:01.746Z,15.34
2022-09-10T02:48:04.529Z,15.33
2022-09-10T02:49:06.729Z,15.32
2022-09-10T02:50:08.996Z,15.35
2022-09-10T02:51:10.982Z,15.33
2022-09-10T02:52:12.890Z,15.31
2022-09-10T02:53:14.661Z,15.33
2022-09-10T02:54:16.666Z,15.33
2022-09-10T02:55:19.075Z,15.34
2022-09-10T02:56:20.899Z,15.36
2022-09-10T02:57:22.733Z,15.35
2022-09-10T02:58:24.528Z,15.28
2022-09-10T02:59:26.313Z,15.29
2022-09-10T03:00:28.069Z,15.27
2022-09-10T03:01:30.062Z,15.26
2022-09-10T03:02:31.934Z,15.26
2022-09-10T03:03:33.686Z,15.25
2022-09-10T03:04:35.503Z,15.25
2022-09-10T03:05:38.640Z,15.23
2022-09-10T03:06:41.149Z,15.18
2022-09-10T03:07:44.062Z,15.17
2022-09-10T03:08:45.894Z,15.22
2022-09-10T03:09:47.808Z,15.23
2022-09-10T03:10:49.879Z,15.24
2022-09-10T03:11:52.237Z,15.25
2022-09-10T03:12:54.745Z,15.24
2022-09-10T03:13:56.516Z,15.20
2022-09-10T03:14:59.534Z,15.21
2022-09-10T03:16:04.429Z,15.24
2022-09-10T03:17:06.593Z,15.24
2022-09-10T03:18:09.513Z,15.22
2022-09-10T03:19:11.304Z,15.23
2022-09-10T03:20:13.818Z,15.22
2022-09-10T03:21:18.655Z,15.21
2022-09-10T03:22:20.492Z,15.21
2022-09-10T03:23:22.406Z,15.22
2022-09-10T03:24:25.665Z,15.17
2022-09-10T03:25:27.421Z,15.15
2022-09-10T03:26:29.126Z,15.10
2022-09-10T03:27:31.101Z,15.09
2022-09-10T03:28:33.368Z,15.10
2022-09-10T03:29:35.171Z,15.12
2022-09-10T03:30:37.530Z,15.15
2022-09-10T03:31:39.965Z,15.15
2022-09-10T03:32:41.909Z,15.13
2022-09-10T03:33:43.995Z,15.14
2022-09-10T03:34:45.763Z,15.15
2022-09-10T03:35:48.792Z,15.15
2022-09-10T03:36:51.754Z,15.14
2022-09-10T03:37:53.632Z,15.14
2022-09-10T03:38:55.512Z,15.12
2022-09-10T03:39:58.260Z,15.10
2022-09-10T03:41:03.273Z,15.10
2022-09-10T03:42:05.510Z,15.02
2022-09-10T03:43:07.509Z,15.04
2022-09-10T03:44:09.461Z,15.08
2022-09-10T03:45:12.346Z,15.07
2022-09-10T03:46:14.761Z,15.07
2022-09-10T03:47:16.752Z,15.06
2022-09-10T03:48:19.591Z,15.06
2022-09-10T03:49:21.407Z,15.05
2022-09-10T03:50:23.252Z,15.06
2022-09-10T03:51:25.194Z,15.07
2022-09-10T03:52:27.402Z,15.06
2022-09-10T03:53:29.230Z,15.06
2022-09-10T03:54:31.058Z,15.03
2022-09-10T03:55:32.855Z,15.02
2022-09-10T03:56:34.935Z,15.04
2022-09-10T03:57:36.666Z,15.02
2022-09-10T03:58:39.191Z,15.02
2022-09-10T03:59:41.428Z,15.05
2022-09-10T04:00:43.258Z,15.06
2022-09-10T04:01:45.702Z,15.07
2022-09-10T04:02:48.529Z,15.05
2022-09-10T04:03:50.493Z,15.04
2022-09-10T04:04:52.247Z,15.05
2022-09-10T04:05:54.446Z,15.07
2022-09-10T04:06:56.279Z,15.09
2022-09-10T04:08:02.225Z,15.07
2022-09-10T04:09:04.096Z,15.06
2022-09-10T04:10:06.157Z,15.06
2022-09-10T04:11:08.020Z,15.06
2022-09-10T04:12:09.967Z,15.05
2022-09-10T04:13:11.987Z,15.05
2022-09-10T04:14:13.983Z,15.07
2022-09-10T04:15:15.926Z,15.05
2022-09-10T04:16:18.408Z,15.07
2022-09-10T04:17:21.045Z,15.08
2022-09-10T04:18:22.886Z,15.10
2022-09-10T04:19:25.011Z,15.12
2022-09-10T04:20:27.351Z,15.11
2022-09-10T04:21:29.292Z,15.11
2022-09-10T04:22:31.104Z,15.10
2022-09-10T04:23:33.079Z,15.10
2022-09-10T04:24:34.980Z,15.10
2022-09-10T04:25:36.797Z,15.07
2022-09-10T04:26:38.651Z,15.06
2022-09-10T04:27:40.411Z,15.06
2022-09-10T04:28:42.252Z,15.07
2022-09-10T04:29:44.314Z,15.07
2022-09-10T04:30:47.383Z,15.05
2022-09-10T04:31:49.275Z,15.00
2022-09-10T04:32:52.882Z,14.98
2022-09-10T04:33:54.913Z,14.97
2022-09-10T04:34:56.758Z,14.97
2022-09-10T04:36:01.329Z,14.98
2022-09-10T04:37:03.049Z,15.00
2022-09-10T04:38:04.908Z,14.98
2022-09-10T04:39:06.675Z,14.97
2022-09-10T04:40:12.096Z,14.98
2022-09-10T04:41:15.791Z,14.98
2022-09-10T04:42:19.402Z,15.00
2022-09-10T04:43:21.207Z,15.00
2022-09-10T04:44:23.021Z,14.99
2022-09-10T04:45:26.177Z,14.99
2022-09-10T04:46:28.063Z,14.96
2022-09-10T04:47:29.976Z,14.90
2022-09-10T04:48:32.807Z,14.90
2022-09-10T04:49:34.591Z,14.93
2022-09-10T04:50:36.330Z,14.94
2022-09-10T04:51:38.139Z,14.96
2022-09-10T04:52:39.972Z,14.96
2022-09-10T04:53:42.197Z,14.96
2022-09-10T04:54:44.208Z,14.97
2022-09-10T04:55:47.140Z,15.00
2022-09-10T04:56:50.009Z,15.02
2022-09-10T04:57:51.977Z,15.02
2022-09-10T04:58:53.752Z,15.03
2022-09-10T04:59:56.000Z,15.03
2022-09-10T05:00:57.875Z,14.99
2022-09-10T05:01:59.667Z,14.97
2022-09-10T05:03:01.571Z,14.94
2022-09-10T05:04:03.851Z,14.95
2022-09-10T05:05:05.940Z,14.91
2022-09-10T05:06:07.757Z,14.91
2022-09-10T05:07:09.682Z,14.91
2022-09-10T05:08:12.985Z,14.90
2022-09-10T05:09:14.768Z,14.92
2022-09-10T05:10:16.735Z,14.94
2022-09-10T05:11:21.418Z,14.95
2022-09-10T05:12:24.462Z,14.96
2022-09-10T05:13:26.232Z,14.98
2022-09-10T05:14:28.524Z,14.96
2022-09-10T05:15:30.375Z,14.95
2022-09-10T05:16:32.237Z,14.93
2022-09-10T05:17:34.427Z,14.89
2022-09-10T05:18:36.196Z,14.90
2022-09-10T05:19:37.950Z,14.92
2022-09-10T05:20:39.799Z,14.95
2022-09-10T05:21:41.675Z,14.98
2022-09-10T05:22:43.506Z,14.96
2022-09-10T05:23:45.466Z,14.90
2022-09-10T05:24:47.319Z,14.86
2022-09-10T05:25:49.136Z,14.83
2022-09-10T05:26:51.002Z,14.82
2022-09-10T05:27:53.001Z,14.78
2022-09-10T05:28:55.788Z,14.79
2022-09-10T05:29:57.918Z,14.80
2022-09-10T05:30:59.917Z,14.83
2022-09-10T05:32:01.823Z,14.85
2022-09-10T05:33:03.816Z,14.87
2022-09-10T05:34:05.610Z,14.88
2022-09-10T05:35:08.969Z,14.87
2022-09-10T05:36:11.009Z,14.84
2022-09-10T05:37:12.794Z,14.85
2022-09-10T05:38:14.532Z,14.88
2022-09-10T05:39:16.656Z,14.89
2022-09-10T05:40:18.867Z,14.90
2022-09-10T05:41:21.305Z,14.92
2022-09-10T05:42:23.105Z,14.94
2022-09-10T05:43:25.361Z,14.96
2022-09-10T05:44:27.117Z,14.97
2022-09-10T05:45:29.023Z,14.97
2022-09-10T05:46:33.541Z,14.95
2022-09-10T05:47:35.820Z,14.95
2022-09-10T05:48:40.991Z,14.97
2022-09-10T05:49:43.576Z,14.97
2022-09-10T05:50:45.984Z,14.95
2022-09-10T05:51:47.747Z,14.95
2022-09-10T05:52:49.488Z,14.96
2022-09-10T05:53:51.326Z,14.95
2022-09-10T05:54:54.819Z,14.95
2022-09-10T05:55:56.620Z,14.94
2022-09-10T05:56:58.953Z,14.91
2022-09-10T05:58:00.860Z,14.90
2022-09-10T05:59:04.295Z,14.91
2022-09-10T06:00:09.722Z,14.93
2022-09-10T06:01:11.528Z,14.93
2022-09-10T06:02:19.545Z,14.94
2022-09-10T06:03:25.093Z,14.92
2022-09-10T06:04:26.980Z,14.88
2022-09-10T06:05:28.790Z,14.89
2022-09-10T06:06:31.265Z,14.91
2022-09-10T06:07:33.141Z,14.93
2022-09-10T06:08:35.974Z,14.95
2022-09-10T06:09:37.731Z,14.97
2022-09-10T06:10:39.666Z,14.98
2022-09-10T06:11:42.059Z,14.98
2022-09-10T06:12:47.056Z,14.96
2022-09-10T06:13:49.267Z,14.96
2022-09-10T06:14:51.096Z,14.96
2022-09-10T06:15:53.219Z,14.97
2022-09-10T06:16:55.816Z,14.98
2022-09-10T06:17:58.491Z,14.99
2022-09-10T06:19:00.556Z,14.97
2022-09-10T06:20:02.395Z,14.93
2022-09-10T06:21:04.307Z,14.90
2022-09-10T06:22:06.507Z,14.90
2022-09-10T06:23:08.358Z,14.91
2022-09-10T06:24:10.367Z,14.91
2022-09-10T06:25:12.848Z,14.94
2022-09-10T06:26:17.300Z,14.98
2022-09-10T06:27:19.187Z,15.02
2022-09-10T06:28:20.909Z,15.06
2022-09-10T06:29:22.811Z,15.10
2022-09-10T06:30:24.685Z,15.13
2022-09-10T06:31:27.398Z,15.17
2022-09-10T06:32:29.226Z,15.19
2022-09-10T06:33:31.412Z,15.22
2022-09-10T06:34:33.226Z,15.25
2022-09-10T06:35:35.717Z,15.23
2022-09-10T06:36:37.567Z,15.24
2022-09-10T06:37:39.479Z,15.25
2022-09-10T06:38:41.756Z,15.26
2022-09-10T06:39:43.549Z,15.27
2022-09-10T06:40:55.225Z,15.27
2022-09-10T06:41:57.005Z,15.28
2022-09-10T06:43:01.477Z,15.28
2022-09-10T06:44:03.376Z,15.32
2022-09-10T06:45:05.926Z,15.37
2022-09-10T06:46:24.773Z,15.39
2022-09-10T06:48:18.829Z,15.38
2022-09-10T06:48:53.882Z,15.41
2022-09-10T06:49:56.160Z,15.42
2022-09-10T06:50:59.128Z,15.40
2022-09-10T06:52:01.750Z,15.34
2022-09-10T06:53:03.611Z,15.30
2022-09-10T06:54:05.754Z,15.32
2022-09-10T06:55:07.733Z,15.35
2022-09-10T06:56:13.056Z,15.37
2022-09-10T06:57:14.859Z,15.38
2022-09-10T06:58:20.955Z,15.41
2022-09-10T06:59:23.506Z,15.45
2022-09-10T07:00:25.417Z,15.47
2022-09-10T07:01:27.262Z,15.49
2022-09-10T07:02:31.154Z,15.54
2022-09-10T07:03:32.949Z,15.58
2022-09-10T07:04:34.904Z,15.59
2022-09-10T07:05:36.724Z,15.59
2022-09-10T07:06:38.925Z,15.58
2022-09-10T07:07:41.152Z,15.62
2022-09-10T07:08:43.189Z,15.63
2022-09-10T07:09:44.994Z,15.66
2022-09-10T07:10:46.906Z,15.69
2022-09-10T07:11:48.749Z,15.69
2022-09-10T07:12:50.602Z,15.70
2022-09-10T07:13:54.064Z,15.73
2022-09-10T07:14:55.911Z,15.76
2022-09-10T07:15:58.193Z,15.78
2022-09-10T07:17:00.024Z,15.79
2022-09-10T07:18:01.830Z,15.75
2022-09-10T07:19:03.590Z,15.72
2022-09-10T07:20:05.901Z,15.74
2022-09-10T07:21:11.427Z,15.75
2022-09-10T07:22:13.339Z,15.76
2022-09-10T07:23:16.669Z,15.76
2022-09-10T07:24:20.272Z,15.76
2022-09-10T07:25:23.130Z,15.78
2022-09-10T07:26:26.156Z,15.81
2022-09-10T07:27:27.942Z,15.85
2022-09-10T07:28:29.856Z,15.88
2022-09-10T07:29:31.771Z,15.91
2022-09-10T07:30:36.254Z,15.93
2022-09-10T07:31:38.620Z,15.94
2022-09-10T07:32:43.557Z,15.95
2022-09-10T07:33:46.159Z,15.94
2022-09-10T07:34:47.954Z,15.92
2022-09-10T07:35:50.127Z,15.92
2022-09-10T07:36:51.918Z,15.94
2022-09-10T07:37:54.595Z,15.95
2022-09-10T07:39:03.927Z,15.95
2022-09-10T07:40:06.888Z,15.95
2022-09-10T07:41:11.552Z,15.95
2022-09-10T07:42:13.332Z,15.95
2022-09-10T07:43:15.717Z,15.96
2022-09-10T07:44:17.530Z,15.99
2022-09-10T07:45:19.393Z,16.02
2022-09-10T07:46:22.061Z,16.04
2022-09-10T07:47:25.497Z,16.07
2022-09-10T07:48:28.624Z,16.08
2022-09-10T07:49:30.518Z,16.08
2022-09-10T07:50:32.381Z,16.09
2022-09-10T07:51:34.755Z,16.12
2022-09-10T07:52:37.077Z,16.18
2022-09-10T07:53:44.423Z,16.23
2022-09-10T07:54:51.738Z,16.27
2022-09-10T07:56:04.022Z,16.27
2022-09-10T07:57:05.947Z,16.28
2022-09-10T07:58:07.661Z,16.26
2022-09-10T07:59:09.436Z,16.27
2022-09-10T08:00:16.027Z,16.27
2022-09-10T08:01:19.811Z,16.30
2022-09-10T08:02:22.629Z,16.31
2022-09-10T08:03:24.429Z,16.32
2022-09-10T08:04:26.297Z,16.33
2022-09-10T08:05:29.381Z,16.33
2022-09-10T08:06:32.490Z,16.35
2022-09-10T08:07:34.538Z,16.34
2022-09-10T08:08:38.679Z,16.36
2022-09-10T08:09:40.533Z,16.41
2022-09-10T08:10:42.473Z,16.43
2022-09-10T08:11:44.252Z,16.40
2022-09-10T08:12:46.073Z,16.40
2022-09-10T08:13:48.980Z,16.40
2022-09-10T08:14:51.091Z,16.43
2022-09-10T08:15:52.980Z,16.46
2022-09-10T08:16:54.861Z,16.50
2022-09-10T08:17:56.770Z,16.52
2022-09-10T08:18:58.651Z,16.54
2022-09-10T08:20:01.485Z,16.56
2022-09-10T08:21:04.455Z,16.56
2022-09-10T08:22:09.141Z,16.55
2022-09-10T08:23:14.696Z,16.55
2022-09-10T08:24:16.620Z,16.57
2022-09-10T08:25:20.985Z,16.58
2022-09-10T08:26:23.940Z,16.64
2022-09-10T08:27:25.686Z,16.66
2022-09-10T08:28:27.866Z,16.68
2022-09-10T08:29:30.265Z,16.69
2022-09-10T08:30:32.438Z,16.71
2022-09-10T08:31:34.911Z,16.72
2022-09-10T08:32:36.780Z,16.74
2022-09-10T08:33:40.106Z,16.76
2022-09-10T08:34:46.369Z,16.77
2022-09-10T08:35:57.313Z,16.76
2022-09-10T08:36:59.920Z,16.76
2022-09-10T08:38:01.976Z,16.76
2022-09-10T08:39:08.118Z,16.77
2022-09-10T08:40:14.578Z,16.81
2022-09-10T08:41:22.422Z,16.84
2022-09-10T08:42:28.598Z,16.89
2022-09-10T08:43:45.796Z,16.91
2022-09-10T08:44:55.939Z,16.95
2022-09-10T08:46:03.341Z,16.97
2022-09-10T08:47:20.744Z,16.99
2022-09-10T08:48:25.632Z,16.98
2022-09-10T08:49:45.845Z,16.98
2022-09-10T08:50:53.437Z,16.95
2022-09-10T08:52:19.455Z,16.95
2022-09-10T08:53:32.213Z,16.94
2022-09-10T08:54:48.528Z,17.00
2022-09-10T08:55:52.123Z,17.03
2022-09-10T08:56:58.603Z,17.10
2022-09-10T08:58:10.579Z,17.15
2022-09-10T08:59:18.279Z,17.24
2022-09-10T09:00:24.809Z,17.27
2022-09-10T09:01:42.386Z,17.34
2022-09-10T09:02:49.492Z,17.41
2022-09-10T09:03:52.015Z,17.45
2022-09-10T09:05:05.894Z,17.48
2022-09-10T09:06:26.153Z,17.47
2022-09-10T09:07:31.633Z,17.47
2022-09-10T09:08:48.679Z,17.44
2022-09-10T09:09:54.747Z,17.40
2022-09-10T09:11:04.448Z,17.40
2022-09-10T09:12:38.653Z,17.42
2022-09-10T09:13:58.666Z,17.42
2022-09-10T09:15:14.193Z,17.45
2022-09-10T09:16:16.957Z,17.51
2022-09-10T09:17:40.972Z,17.54
2022-09-10T09:19:08.896Z,17.57
2022-09-10T09:20:15.888Z,17.67
2022-09-10T09:21:20.969Z,17.72
2022-09-10T09:22:46.579Z,17.73
2022-09-10T09:24:13.058Z,17.75
2022-09-10T09:25:23.043Z,17.76
2022-09-10T09:26:28.800Z,17.75
2022-09-10T09:27:33.899Z,17.76
2022-09-10T09:28:50.845Z,17.78
2022-09-10T09:30:08.398Z,17.77
2022-09-10T09:31:14.640Z,17.78
2022-09-10T09:32:18.145Z,17.85
2022-09-10T09:33:23.941Z,17.88
2022-09-10T09:34:25.968Z,17.88
2022-09-10T09:35:33.135Z,17.87
2022-09-10T09:36:39.647Z,17.85
2022-09-10T09:37:42.395Z,17.85
2022-09-10T09:38:47.481Z,17.83
2022-09-10T09:40:05.823Z,17.83
2022-09-10T09:41:28.399Z,17.83
2022-09-10T09:42:35.731Z,17.78
2022-09-10T09:43:50.127Z,17.75
2022-09-10T09:45:01.762Z,17.73
2022-09-10T09:46:04.956Z,17.73
2022-09-10T09:47:09.505Z,17.73
2022-09-10T09:48:18.515Z,17.75
2022-09-10T09:49:20.423Z,17.76
2022-09-10T09:50:23.189Z,17.76
2022-09-10T09:51:25.589Z,17.79
2022-09-10T09:52:31.592Z,17.83
2022-09-10T09:53:33.430Z,17.86
2022-09-10T09:55:09.919Z,17.86
2022-09-10T09:56:02.384Z,17.86
2022-09-10T09:57:14.792Z,17.86
2022-09-10T09:58:22.740Z,17.84
2022-09-10T09:59:24.585Z,17.84
2022-09-10T10:00:37.484Z,17.85
2022-09-10T10:01:40.784Z,17.85
2022-09-10T10:02:43.021Z,17.86
2022-09-10T10:03:50.571Z,17.89
2022-09-10T10:04:55.629Z,17.93
2022-09-10T10:06:08.212Z,17.95
2022-09-10T10:07:12.194Z,17.96
2022-09-10T10:08:42.963Z,17.95
2022-09-10T10:09:49.318Z,17.96
2022-09-10T10:10:52.171Z,17.94
2022-09-10T10:12:00.525Z,17.93
2022-09-10T10:13:02.272Z,17.91
2022-09-10T10:14:23.725Z,17.90
2022-09-10T10:15:39.355Z,17.92
2022-09-10T10:16:41.118Z,17.93
2022-09-10T10:17:43.810Z,17.93
2022-09-10T10:18:46.054Z,17.92
2022-09-10T10:19:57.249Z,17.94
2022-09-10T10:21:10.987Z,17.95
2022-09-10T10:22:18.889Z,17.94
2022-09-10T10:23:34.480Z,17.95
2022-09-10T10:24:36.251Z,17.94
2022-09-10T10:25:40.751Z,17.95
2022-09-10T10:26:44.316Z,17.95
2022-09-10T10:27:48.555Z,17.98
2022-09-10T10:28:56.354Z,17.99
2022-09-10T10:30:00.538Z,17.99
2022-09-10T10:31:04.746Z,17.99
2022-09-10T10:32:15.594Z,17.99
2022-09-10T10:33:19.700Z,18.01
2022-09-10T10:34:30.753Z,17.99
2022-09-10T10:35:44.682Z,18.01
2022-09-10T10:37:05.084Z,18.02
2022-09-10T10:38:13.312Z,18.04
2022-09-10T10:39:21.081Z,18.02
2022-09-10T10:40:43.904Z,18.01
2022-09-10T10:41:59.935Z,18.00
2022-09-10T10:43:01.673Z,18.01
2022-09-10T10:44:24.447Z,18.02
2022-09-10T10:45:39.151Z,18.04
2022-09-10T10:46:54.422Z,18.04
2022-09-10T10:48:12.854Z,18.03
2022-09-10T10:49:29.735Z,18.03
2022-09-10T10:50:35.266Z,18.04
2022-09-10T10:51:37.154Z,18.06
2022-09-10T10:52:57.068Z,18.06
2022-09-10T10:54:05.052Z,18.05
2022-09-10T10:55:09.927Z,18.05
2022-09-10T10:56:20.236Z,18.05
2022-09-10T10:57:28.170Z,18.04
2022-09-10T10:58:41.273Z,18.03
2022-09-10T11:00:03.931Z,18.03
2022-09-10T11:01:19.582Z,18.05
2022-09-10T11:02:41.682Z,18.05
2022-09-10T11:04:01.983Z,18.07
2022-09-10T11:05:18.594Z,18.06
2022-09-10T11:06:23.774Z,18.06
2022-09-10T11:07:28.863Z,18.06
2022-09-10T11:08:34.943Z,18.07
2022-09-10T11:09:41.461Z,18.09
2022-09-10T11:10:45.391Z,18.08
2022-09-10T11:11:50.177Z,18.09
2022-09-10T11:13:03.889Z,18.11
2022-09-10T11:14:16.353Z,18.13
2022-09-10T11:15:25.448Z,18.16
2022-09-10T11:16:29.717Z,18.17
2022-09-10T11:17:43.867Z,18.17
2022-09-10T11:18:51.106Z,18.19
2022-09-10T11:20:28.078Z,18.20
2022-09-10T11:21:35.282Z,18.14
2022-09-10T11:22:42.108Z,18.15
2022-09-10T11:23:52.656Z,18.17
2022-09-10T11:25:08.806Z,18.21
2022-09-10T11:26:21.294Z,18.22
2022-09-10T11:27:27.946Z,18.25
2022-09-10T11:28:36.812Z,18.26
2022-09-10T11:29:57.366Z,18.28
2022-09-10T11:31:19.778Z,18.24
2022-09-10T11:32:30.828Z,18.43
2022-09-10T11:33:46.529Z,18.68
2022-09-10T11:35:04.015Z,19.02
2022-09-10T11:36:11.278Z,19.30
2022-09-10T11:37:20.504Z,19.52
2022-09-10T11:38:30.699Z,19.74
2022-09-10T11:39:34.711Z,19.97
2022-09-10T11:40:46.547Z,20.23
2022-09-10T11:41:52.247Z,20.40
2022-09-10T11:42:57.081Z,20.55
2022-09-10T11:44:18.612Z,20.74
2022-09-10T11:45:29.771Z,20.92
2022-09-10T11:46:36.210Z,21.02
2022-09-10T11:47:44.919Z,21.11
2022-09-10T11:48:49.879Z,21.33
2022-09-10T11:49:51.637Z,21.53
2022-09-10T11:50:57.866Z,21.71
2022-09-10T11:51:59.779Z,21.91
2022-09-10T11:53:04.222Z,21.97
2022-09-10T11:54:10.414Z,22.05
2022-09-10T11:55:14.904Z,22.14
2022-09-10T11:56:35.213Z,22.24
2022-09-10T11:57:40.158Z,22.43
2022-09-10T11:58:59.996Z,22.44
2022-09-10T12:00:07.932Z,22.33
2022-09-10T12:01:09.667Z,22.27
2022-09-10T12:02:30.062Z,22.35
2022-09-10T12:03:38.183Z,22.40
2022-09-10T12:04:58.749Z,22.27
2022-09-10T12:06:00.979Z,21.97
2022-09-10T12:07:09.234Z,21.81
2022-09-10T12:08:17.992Z,21.68
2022-09-10T12:09:25.054Z,21.51
2022-09-10T12:10:44.922Z,21.35
2022-09-10T12:12:04.973Z,21.29
2022-09-10T12:13:09.819Z,21.14
2022-09-10T12:14:15.845Z,21.00
2022-09-10T12:15:20.057Z,20.91
2022-09-10T12:16:41.348Z,20.88
2022-09-10T12:17:45.512Z,20.93
2022-09-10T12:18:49.181Z,21.11
2022-09-10T12:19:53.854Z,21.34
2022-09-10T12:21:00.407Z,21.56
2022-09-10T12:22:04.691Z,21.71
2022-09-10T12:23:06.956Z,21.65
2022-09-10T12:24:29.942Z,21.67
2022-09-10T12:25:34.558Z,21.94
2022-09-10T12:26:45.151Z,22.16
2022-09-10T12:27:51.965Z,22.26
2022-09-10T12:28:53.803Z,22.23
2022-09-10T12:29:55.666Z,22.21
2022-09-10T12:31:01.414Z,22.33
2022-09-10T12:32:09.342Z,22.40
2022-09-10T12:33:13.887Z,22.43
2022-09-10T12:34:17.413Z,22.56
2022-09-10T12:35:38.263Z,22.63
2022-09-10T12:36:40.142Z,22.57
2022-09-10T12:37:41.883Z,22.45
2022-09-10T12:38:50.104Z,22.40
2022-09-10T12:40:24.107Z,22.38
2022-09-10T12:41:25.940Z,22.46
2022-09-10T12:42:29.717Z,22.55
2022-09-10T12:43:40.417Z,22.56
2022-09-10T12:44:42.211Z,22.60
2022-09-10T12:46:03.882Z,22.71
2022-09-10T12:47:17.886Z,22.84
2022-09-10T12:48:22.869Z,22.94
2022-09-10T12:49:27.096Z,23.09
2022-09-10T12:50:30.914Z,23.24
2022-09-10T12:51:38.806Z,23.38
2022-09-10T12:52:43.315Z,23.48
2022-09-10T12:53:45.083Z,23.59
2022-09-10T12:54:56.064Z,23.69
2022-09-10T12:55:59.991Z,23.65
2022-09-10T12:57:05.578Z,23.43
2022-09-10T12:58:25.950Z,23.33
2022-09-10T12:59:45.193Z,23.23
2022-09-10T13:00:56.241Z,23.05
2022-09-10T13:01:58.661Z,22.89
2022-09-10T13:03:09.361Z,22.82
2022-09-10T13:04:28.730Z,22.73
2022-09-10T13:05:46.937Z,22.75
2022-09-10T13:06:48.857Z,22.65
2022-09-10T13:07:59.595Z,22.54
2022-09-10T13:09:03.522Z,22.43
2022-09-10T13:10:07.657Z,22.39
2022-09-10T13:11:16.042Z,22.37
2022-09-10T13:12:20.168Z,22.31
2022-09-10T13:13:34.512Z,22.31
2022-09-10T13:14:39.807Z,22.31
2022-09-10T13:15:49.856Z,22.27
2022-09-10T13:16:51.682Z,22.33
2022-09-10T13:17:54.885Z,22.34
2022-09-10T13:19:14.881Z,22.44
2022-09-10T13:20:19.958Z,22.57
2022-09-10T13:21:24.506Z,22.64
2022-09-10T13:22:52.753Z,22.76
2022-09-10T13:23:55.168Z,22.74
2022-09-10T13:25:06.326Z,22.65
2022-09-10T13:26:26.935Z,22.60
2022-09-10T13:27:41.050Z,22.64
2022-09-10T13:28:43.158Z,22.59
2022-09-10T13:29:47.734Z,22.53
2022-09-10T13:30:58.532Z,22.54
2022-09-10T13:32:08.973Z,22.51
2022-09-10T13:33:11.830Z,22.40
2022-09-10T13:34:14.356Z,22.32
2022-09-10T13:35:22.253Z,22.28
2022-09-10T13:36:27.074Z,22.33
2022-09-10T13:38:01.386Z,22.26
2022-09-10T13:39:21.545Z,22.10
2022-09-10T13:40:39.093Z,22.05
2022-09-10T13:41:56.599Z,22.00
2022-09-10T13:43:19.086Z,22.17
2022-09-10T13:44:31.318Z,22.34
2022-09-10T13:45:48.254Z,22.45
2022-09-10T13:46:52.626Z,22.42
2022-09-10T13:48:01.715Z,22.34
2022-09-10T13:49:22.244Z,22.34
2022-09-10T13:50:29.100Z,22.34
2022-09-10T13:51:41.079Z,22.39
2022-09-10T13:52:45.465Z,22.39
2022-09-10T13:53:49.348Z,22.31
2022-09-10T13:54:55.470Z,22.28
2022-09-10T13:56:02.062Z,22.37
2022-09-10T13:57:24.126Z,22.46
2022-09-10T13:58:29.133Z,22.49
2022-09-10T13:59:32.133Z,22.48
2022-09-10T14:00:40.722Z,22.56
2022-09-10T14:01:55.775Z,22.65
2022-09-10T14:03:01.468Z,22.68
2022-09-10T14:04:21.299Z,22.67
2022-09-10T14:05:23.386Z,22.73
2022-09-10T14:06:25.655Z,22.79
2022-09-10T14:07:28.963Z,22.68
2022-09-10T14:08:30.779Z,22.55